Time;durP1;ratioP1;P1;durP2;ratioP2;P2;SDS_P1;SDS_P2;PMS_P1;PMS_P2;Temp;Humidity;BMP_temperature;BMP_pressure;BME280_temperature;BME280_humidity;BME280_pressure;Samples;Min_cycle;Max_cycle;Signal;HPM_P1;HPM_P2
2023/05/30 00:00:18;;;;;;;4.97;4.32;;;;;;;18.65;52.98;95699.22;5007996;28;20198;-88
2023/05/30 00:02:45;;;;;;;5.30;4.43;;;;;;;18.69;52.49;95702.94;5008398;28;20202;-88
2023/05/30 00:05:13;;;;;;;4.70;4.22;;;;;;;18.82;52.48;95702.75;5008646;28;20211;-88
2023/05/30 00:07:39;;;;;;;5.82;4.00;;;;;;;18.83;52.12;95696.53;5007898;28;20238;-88
2023/05/30 00:10:06;;;;;;;4.57;3.70;;;;;;;18.91;51.54;95699.56;5008437;28;20202;-88
2023/05/30 00:12:33;;;;;;;4.57;4.10;;;;;;;18.97;51.66;95703.09;5008275;28;20203;-87
2023/05/30 00:15:01;;;;;;;5.20;3.55;;;;;;;18.94;51.68;95700.94;5007879;28;20206;-88
2023/05/30 00:17:28;;;;;;;4.72;3.80;;;;;;;18.92;52.00;95700.38;5008179;28;20314;-88
2023/05/30 00:19:56;;;;;;;4.25;3.83;;;;;;;18.93;51.99;95699.34;5008172;28;20242;-88
2023/05/30 00:22:23;;;;;;;5.15;4.00;;;;;;;18.89;51.67;95693.00;5007831;28;20331;-88
2023/05/30 00:24:51;;;;;;;3.95;3.55;;;;;;;18.84;51.99;95700.72;5008506;28;20209;-88
2023/05/30 00:27:18;;;;;;;4.18;3.75;;;;;;;18.70;52.46;95702.72;5007958;28;20218;-88
2023/05/30 00:29:46;;;;;;;3.88;3.30;;;;;;;18.72;52.47;95700.69;5008252;28;20277;-88
2023/05/30 00:32:12;;;;;;;4.10;3.30;;;;;;;18.69;52.00;95695.13;5008637;28;20245;-88
2023/05/30 00:34:40;;;;;;;10.60;3.67;;;;;;;18.63;52.10;95705.44;5008247;28;20197;-88
2023/05/30 00:37:08;;;;;;;4.13;3.72;;;;;;;18.54;52.66;95708.56;5007553;28;20237;-88
2023/05/30 00:39:35;;;;;;;5.03;4.07;;;;;;;18.43;53.11;95702.31;5008314;28;20227;-88
2023/05/30 00:42:02;;;;;;;3.88;3.47;;;;;;;18.33;52.98;95702.03;5011706;28;20209;-88
2023/05/30 00:44:28;;;;;;;4.10;3.70;;;;;;;18.28;53.18;95702.69;5011813;28;20229;-88
2023/05/30 00:46:55;;;;;;;5.03;3.83;;;;;;;18.25;53.24;95704.97;5000465;28;20200;-88
2023/05/30 00:49:22;;;;;;;4.53;3.72;;;;;;;18.19;53.09;95705.84;5010484;28;20246;-88
2023/05/30 00:51:50;;;;;;;4.18;3.20;;;;;;;18.22;52.98;95703.59;5011459;28;20199;-88
2023/05/30 00:54:17;;;;;;;3.83;3.53;;;;;;;18.20;52.96;95697.78;5011781;28;20202;-88
2023/05/30 00:56:44;;;;;;;4.88;3.15;;;;;;;18.22;52.30;95708.78;5011477;28;20265;-88
2023/05/30 00:59:10;;;;;;;3.53;3.22;;;;;;;18.28;52.00;95710.50;5011482;28;20233;-88
2023/05/30 01:01:37;;;;;;;6.65;3.95;;;;;;;18.28;51.90;95714.91;5011628;28;20211;-88
2023/05/30 01:04:04;;;;;;;4.07;3.67;;;;;;;18.21;51.99;95719.44;5011674;28;20209;-87
2023/05/30 01:06:30;;;;;;;4.70;4.30;;;;;;;18.14;52.16;95718.72;5011557;28;20744;-88
2023/05/30 01:08:59;;;;;;;3.67;3.38;;;;;;;18.13;51.54;95725.75;5011292;28;20223;-88
2023/05/30 01:14:55;;;;;;;4.85;3.55;;;;;;;17.86;52.08;95725.28;4999638;28;20286;-88
2023/05/30 01:17:30;;;;;;;3.85;3.20;;;;;;;17.76;51.95;95718.97;5007540;28;20244;-88
2023/05/30 01:20:07;;;;;;;3.80;3.50;;;;;;;17.63;52.12;95719.09;5011176;28;20256;-88
2023/05/30 01:22:42;;;;;;;5.00;3.13;;;;;;;17.54;52.66;95708.16;5011523;28;20301;-88
2023/05/30 01:25:23;;;;;;;4.53;3.42;;;;;;;17.53;52.19;95712.56;5011216;28;20618;-88
2023/05/30 01:28:06;;;;;;;5.18;3.67;;;;;;;17.59;52.13;95709.13;5010997;28;20301;-88
2023/05/30 01:30:36;;;;;;;5.13;3.42;;;;;;;17.62;51.67;95707.88;5011094;28;20238;-88
2023/05/30 01:33:04;;;;;;;3.85;3.45;;;;;;;17.67;51.66;95712.47;5011548;28;20238;-88
2023/05/30 01:35:31;;;;;;;4.03;3.25;;;;;;;17.77;51.87;95716.16;5010952;28;20748;-88
2023/05/30 01:38:00;;;;;;;4.28;3.10;;;;;;;17.83;50.98;95720.50;5010770;28;20207;-88
2023/05/30 01:40:28;;;;;;;5.63;3.45;;;;;;;17.86;50.94;95722.69;5009801;28;20869;-87
2023/05/30 01:42:59;;;;;;;4.68;2.97;;;;;;;17.82;51.28;95725.94;5010799;28;20209;-88
2023/05/30 01:45:37;;;;;;;8.25;3.80;;;;;;;17.80;51.03;95722.75;5010733;28;20293;-87
2023/05/30 01:48:11;;;;;;;6.15;3.47;;;;;;;17.83;50.70;95719.72;5005448;28;20434;-88
2023/05/30 01:50:44;;;;;;;6.53;3.38;;;;;;;17.84;50.75;95724.69;5010518;28;20225;-88
2023/05/30 01:53:17;;;;;;;5.95;3.38;;;;;;;17.87;50.78;95726.09;5010264;28;20207;-88
2023/05/30 01:55:45;;;;;;;3.50;3.20;;;;;;;17.90;50.90;95729.03;5011149;28;20249;-88
2023/05/30 01:58:14;;;;;;;3.30;3.00;;;;;;;17.91;50.54;95728.00;5010188;28;20230;-87
2023/05/30 02:00:43;;;;;;;3.70;3.20;;;;;;;17.82;51.06;95729.34;5010679;28;20257;-88
2023/05/30 02:03:11;;;;;;;3.75;3.15;;;;;;;17.89;50.95;95724.06;5010584;28;20701;-88
2023/05/30 02:05:37;;;;;;;5.80;3.00;;;;;;;17.92;50.45;95721.78;5010050;28;20206;-88
2023/05/30 02:08:04;;;;;;;5.53;3.17;;;;;;;17.95;50.70;95720.56;5010271;28;20219;-88
2023/05/30 02:10:30;;;;;;;3.95;3.05;;;;;;;17.91;50.61;95724.59;5010745;28;20219;-88
2023/05/30 02:12:57;;;;;;;3.92;3.00;;;;;;;17.92;50.73;95724.41;5010334;28;20209;-88
2023/05/30 02:15:23;;;;;;;4.03;3.33;;;;;;;18.01;50.04;95724.91;5009957;28;20636;-88
2023/05/30 02:17:51;;;;;;;5.80;3.10;;;;;;;18.01;50.26;95734.53;5010224;28;20203;-88
2023/05/30 02:20:21;;;;;;;4.82;3.40;;;;;;;17.92;50.46;95731.41;5021566;28;20225;-88
2023/05/30 02:22:48;;;;;;;4.03;3.10;;;;;;;17.91;50.42;95728.00;5030426;28;20210;-88
2023/05/30 02:25:15;;;;;;;4.25;3.22;;;;;;;17.92;50.72;95729.59;5030329;28;20194;-88
2023/05/30 02:27:42;;;;;;;3.72;3.30;;;;;;;17.95;50.37;95730.97;5029720;28;20206;-88
2023/05/30 02:30:08;;;;;;;3.50;3.20;;;;;;;17.91;50.25;95725.41;5030181;28;20202;-88
2023/05/30 02:32:35;;;;;;;4.07;3.15;;;;;;;17.85;49.71;95721.09;5029633;28;20232;-87
2023/05/30 02:35:03;;;;;;;4.35;2.97;;;;;;;17.84;49.70;95723.91;5029383;28;20261;-88
2023/05/30 02:37:29;;;;;;;4.53;3.08;;;;;;;17.87;50.06;95731.28;5029867;28;20197;-88
2023/05/30 02:39:56;;;;;;;3.88;2.72;;;;;;;17.90;49.84;95729.03;5028573;28;20226;-88
2023/05/30 02:42:23;;;;;;;3.58;3.22;;;;;;;17.89;49.93;95726.66;5024264;28;20240;-88
2023/05/30 02:44:49;;;;;;;5.00;2.75;;;;;;;17.91;49.80;95733.22;5009705;28;20250;-88
2023/05/30 02:47:16;;;;;;;5.43;3.28;;;;;;;17.89;49.84;95732.66;5008719;28;20234;-88
2023/05/30 02:49:42;;;;;;;3.13;2.83;;;;;;;17.83;50.22;95725.72;5009438;28;20219;-88
2023/05/30 02:52:10;;;;;;;3.42;2.95;;;;;;;17.86;50.02;95735.72;5010035;28;20206;-88
2023/05/30 02:54:38;;;;;;;4.47;2.92;;;;;;;17.78;49.81;95730.78;5009800;28;20210;-88
2023/05/30 02:57:05;;;;;;;3.58;2.90;;;;;;;17.68;50.19;95722.69;5009626;28;20552;-88
2023/05/30 02:59:31;;;;;;;4.75;2.63;;;;;;;17.60;50.59;95731.53;5009796;28;20612;-88
2023/05/30 03:01:58;;;;;;;4.45;3.17;;;;;;;17.70;50.05;95732.88;5009234;28;20635;-87
2023/05/30 03:04:24;;;;;;;3.50;3.17;;;;;;;17.72;50.16;95733.44;5008695;28;20209;-89
2023/05/30 03:06:51;;;;;;;6.00;2.83;;;;;;;17.71;49.64;95724.03;5009127;28;20199;-87
2023/05/30 03:09:19;;;;;;;4.18;2.90;;;;;;;17.65;49.90;95725.72;5009428;28;20215;-87
2023/05/30 03:11:45;;;;;;;3.30;3.00;;;;;;;17.65;50.14;95733.53;5009089;28;20706;-89
2023/05/30 03:14:12;;;;;;;4.38;3.10;;;;;;;17.63;50.01;95727.72;5008925;28;20202;-90
2023/05/30 03:16:39;;;;;;;5.38;2.95;;;;;;;17.66;49.99;95732.53;5008660;28;20206;-87
2023/05/30 03:19:05;;;;;;;3.60;2.95;;;;;;;17.64;50.04;95736.31;5010672;28;20229;-89
2023/05/30 03:21:34;;;;;;;3.65;3.00;;;;;;;17.68;50.18;95740.91;5028972;28;20575;-89
2023/05/30 03:24:00;;;;;;;3.58;2.92;;;;;;;17.73;50.47;95738.44;5028274;28;20682;-89
2023/05/30 03:26:28;;;;;;;4.88;3.20;;;;;;;17.69;51.33;95737.31;5028363;28;20209;-89
2023/05/30 03:28:55;;;;;;;3.97;3.10;;;;;;;17.68;50.86;95738.31;5028441;28;20260;-90
2023/05/30 03:31:21;;;;;;;6.28;3.20;;;;;;;17.64;51.32;95738.91;5028720;28;20610;-89
2023/05/30 03:33:48;;;;;;;5.55;3.25;;;;;;;17.58;51.73;95741.38;5028507;28;20229;-89
2023/05/30 03:36:14;;;;;;;5.43;3.35;;;;;;;17.54;52.37;95742.00;5028767;28;20202;-87
2023/05/30 03:38:41;;;;;;;4.13;3.10;;;;;;;17.58;52.18;95743.97;5023292;28;20734;-89
2023/05/30 03:41:07;;;;;;;5.40;3.10;;;;;;;17.55;52.52;95744.41;4996096;28;20287;-89
2023/05/30 03:43:38;;;;;;;4.55;3.15;;;;;;;17.58;52.40;95743.97;5008450;28;20214;-89
2023/05/30 03:46:05;;;;;;;7.13;3.13;;;;;;;17.55;52.28;95747.00;5008430;28;20219;-88
2023/05/30 03:48:31;;;;;;;4.45;3.25;;;;;;;17.46;52.60;95750.91;5010589;28;20599;-89
2023/05/30 03:50:58;;;;;;;4.05;3.00;;;;;;;17.40;53.13;95743.97;5008241;28;20199;-89
2023/05/30 03:53:25;;;;;;;3.35;2.92;;;;;;;17.45;52.58;95743.31;5008533;28;20207;-89
2023/05/30 03:55:51;;;;;;;5.88;3.17;;;;;;;17.41;52.71;95737.75;5008416;28;20238;-89
2023/05/30 03:58:17;;;;;;;3.67;3.35;;;;;;;17.48;52.56;95745.50;5007843;28;20269;-89
2023/05/30 04:00:46;;;;;;;4.13;2.90;;;;;;;17.40;52.87;95738.75;5008518;28;20626;-89
2023/05/30 04:03:13;;;;;;;3.20;2.85;;;;;;;17.33;54.26;95745.00;5008181;28;20578;-89
2023/05/30 04:05:39;;;;;;;3.20;2.90;;;;;;;17.45;53.57;95753.72;5008596;28;20674;-89
2023/05/30 04:08:06;;;;;;;4.38;3.08;;;;;;;17.52;53.48;95742.22;5008171;28;20231;-89
2023/05/30 04:10:32;;;;;;;5.10;3.10;;;;;;;17.62;52.87;95754.75;5008111;28;20357;-88
2023/05/30 04:13:00;;;;;;;5.30;2.95;;;;;;;17.62;52.69;95746.94;5009120;28;20304;-89
2023/05/30 04:39:02;;;;;;;4.47;2.92;;;;;;;17.69;53.13;95775.56;5004685;28;20807;-89
2023/05/30 04:44:50;;;;;;;4.13;3.10;;;;;;;17.67;53.05;95777.59;4992791;28;20225;-89
2023/05/30 04:47:16;;;;;;;3.67;2.80;;;;;;;17.65;52.83;95777.00;5003547;28;20207;-89
2023/05/30 04:49:44;;;;;;;10.88;3.30;;;;;;;17.62;52.93;95788.63;5008000;28;20226;-88
2023/05/30 04:52:10;;;;;;;4.45;3.53;;;;;;;17.65;53.19;95785.63;5008068;28;20207;-88
2023/05/30 04:54:44;;;;;;;5.65;2.88;;;;;;;17.69;52.72;95778.97;5007780;28;20207;-88
2023/05/30 04:57:12;;;;;;;4.00;3.53;;;;;;;17.72;52.26;95788.13;5004720;28;20619;-89
2023/05/30 04:59:40;;;;;;;3.65;3.10;;;;;;;17.70;51.61;95779.75;5005365;28;20239;-88
2023/05/30 05:06:13;;;;;;;5.55;2.85;;;;;;;17.94;50.42;95786.69;5006322;28;20249;-89
2023/05/30 05:08:39;;;;;;;5.25;3.15;;;;;;;17.83;50.27;95788.22;4995310;28;20277;-89
2023/05/30 05:11:08;;;;;;;5.07;3.22;;;;;;;17.92;49.61;95783.50;5007869;28;20214;-89
2023/05/30 05:13:35;;;;;;;4.20;3.13;;;;;;;17.86;49.05;95787.81;5007201;28;20214;-89
2023/05/30 05:16:03;;;;;;;5.55;3.20;;;;;;;17.96;49.56;95792.50;5007168;28;20199;-89
2023/05/30 05:18:30;;;;;;;5.00;3.30;;;;;;;18.17;49.57;95792.06;5007304;28;20223;-89
2023/05/30 05:21:00;;;;;;;5.95;3.17;;;;;;;18.30;49.76;95793.69;5023856;28;20218;-89
2023/05/30 05:23:29;;;;;;;11.93;3.60;;;;;;;18.40;49.24;95801.81;5027440;28;20198;-89
2023/05/30 05:25:56;;;;;;;8.82;3.40;;;;;;;18.37;49.04;95796.22;5028224;28;20225;-88
2023/05/30 05:28:39;;;;;;;4.03;2.88;;;;;;;18.52;50.18;95804.47;5030564;28;20230;-89
2023/05/30 05:31:05;;;;;;;10.13;8.02;;;;;;;18.57;48.06;95800.19;5025356;28;20207;-89
2023/05/30 05:33:31;;;;;;;18.17;14.82;;;;;;;18.61;47.81;95796.16;5010961;28;20199;-88
2023/05/30 05:35:58;;;;;;;50.08;41.83;;;;;;;18.71;48.15;95800.81;5011062;28;20223;-89
2023/05/30 05:38:27;;;;;;;6.68;4.32;;;;;;;18.54;47.60;95805.03;5010678;28;20215;-89
2023/05/30 05:40:53;;;;;;;3.90;2.88;;;;;;;18.20;47.42;95801.25;5010454;28;20309;-89
2023/05/30 05:43:20;;;;;;;3.53;3.17;;;;;;;18.29;47.67;95805.13;5010614;28;20241;-89
2023/05/30 05:46:00;;;;;;;6.32;2.92;;;;;;;18.48;47.56;95806.72;5010652;28;20234;-89
2023/05/30 05:48:26;;;;;;;4.25;3.10;;;;;;;18.61;47.87;95798.75;5010513;28;20218;-88
2023/05/30 05:50:53;;;;;;;6.20;3.00;;;;;;;18.66;48.11;95811.16;5010981;28;20203;-88
2023/05/30 05:53:19;;;;;;;4.35;3.63;;;;;;;18.80;48.20;95804.72;5010840;28;20578;-88
2023/05/30 05:55:46;;;;;;;11.40;5.00;;;;;;;18.86;47.57;95813.47;5011241;28;20574;-88
2023/05/30 05:58:12;;;;;;;5.90;3.35;;;;;;;18.85;46.21;95810.09;5010751;28;20214;-89
2023/05/30 06:00:39;;;;;;;5.10;3.45;;;;;;;19.00;46.72;95806.25;5010597;28;20695;-89
2023/05/30 06:03:13;;;;;;;6.05;3.40;;;;;;;19.01;46.24;95808.63;5010855;28;20248;-89
2023/05/30 06:09:05;;;;;;;4.45;3.38;;;;;;;19.05;47.70;95811.59;5009919;28;20402;-89
2023/05/30 06:11:40;;;;;;;3.97;2.95;;;;;;;19.12;47.21;95813.09;5007026;28;20219;-89
2023/05/30 06:14:07;;;;;;;4.68;3.40;;;;;;;19.21;46.63;95818.78;5005150;28;20206;-89
2023/05/30 06:16:33;;;;;;;5.20;3.58;;;;;;;19.29;46.85;95813.22;5010146;28;20206;-89
2023/05/30 06:19:01;;;;;;;6.15;3.47;;;;;;;19.43;46.08;95817.22;4992443;28;20222;-88
2023/05/30 06:21:27;;;;;;;4.10;3.45;;;;;;;19.44;45.69;95815.38;5029592;28;20222;-89
2023/05/30 06:24:00;;;;;;;4.22;3.22;;;;;;;19.32;45.21;95820.59;5029655;28;20198;-89
2023/05/30 06:26:40;;;;;;;7.95;5.70;;;;;;;19.36;46.29;95820.97;5029648;28;20217;-88
2023/05/30 06:29:07;;;;;;;7.43;3.97;;;;;;;19.26;45.58;95819.69;5010508;28;20226;-89
2023/05/30 06:31:33;;;;;;;6.93;3.45;;;;;;;19.18;45.15;95827.84;5009879;28;20194;-89
2023/05/30 06:34:01;;;;;;;5.05;3.35;;;;;;;19.17;45.54;95828.06;5010079;28;20191;-89
2023/05/30 06:36:27;;;;;;;4.70;3.20;;;;;;;19.07;45.51;95828.59;5009693;28;20620;-88
2023/05/30 06:43:09;;;;;;;5.53;3.28;;;;;;;19.36;45.82;95828.78;5009494;28;20908;-88
2023/05/30 06:46:01;;;;;;;4.50;3.40;;;;;;;19.44;45.70;95831.84;5006919;28;20663;-88
2023/05/30 06:48:57;;;;;;;4.22;3.33;;;;;;;19.52;46.20;95828.16;5008803;28;20230;-89
2023/05/30 06:51:38;;;;;;;4.15;3.00;;;;;;;19.70;45.62;95832.47;5008587;28;20253;-89
2023/05/30 06:54:05;;;;;;;3.42;3.13;;;;;;;19.81;44.43;95829.88;5009767;28;20211;-89
2023/05/30 06:56:35;;;;;;;4.53;2.70;;;;;;;19.69;44.82;95834.28;5009062;28;20206;-88
2023/05/30 06:59:10;;;;;;;3.97;2.97;;;;;;;19.63;45.43;95829.97;5009903;28;20252;-89
2023/05/30 07:02:25;;;;;;;7.43;3.58;;;;;;;19.73;45.70;95837.25;5009607;28;20257;-90
2023/05/30 07:08:46;;;;;;;;;;;;;;;;;;;;;
2023/05/30 07:12:16;;;;;;;8.43;2.97;;;;;;;19.81;44.44;95839.53;4925837;28;20201;-89
2023/05/30 07:15:17;;;;;;;6.22;4.40;;;;;;;19.79;44.44;95837.16;4963224;28;20207;-90
2023/05/30 07:18:02;;;;;;;4.80;3.67;;;;;;;19.86;44.34;95837.81;4974255;28;20217;-90
2023/05/30 07:23:50;;;;;;;6.53;3.00;;;;;;;19.95;45.03;95836.44;4962978;28;20216;-89
2023/05/30 07:26:19;;;;;;;7.97;3.03;;;;;;;20.13;45.79;95840.75;4970492;28;20227;-89
2023/05/30 07:28:51;;;;;;;5.70;3.20;;;;;;;20.20;44.52;95836.19;4988846;28;20235;-88
2023/05/30 07:31:53;;;;;;;6.43;3.40;;;;;;;20.23;44.64;95835.72;4989449;28;20550;-89
2023/05/30 07:38:10;;;;;;;4.57;3.38;;;;;;;20.54;45.27;95828.53;5002010;28;20191;-90
2023/05/30 07:44:14;;;;;;;6.63;3.40;;;;;;;20.63;43.94;95827.91;4993316;28;20281;-89
2023/05/30 07:50:54;;;;;;;5.55;3.20;;;;;;;20.59;43.80;95833.84;4996343;28;20740;-89
2023/05/30 08:07:17;;;;;;;4.63;3.47;;;;;;;21.26;43.62;95834.00;4946277;29;20191;-89
2023/05/30 08:13:32;;;;;;;5.05;3.55;;;;;;;21.55;43.49;95837.38;4968228;28;20207;-88
2023/05/30 08:16:40;;;;;;;5.63;3.38;;;;;;;21.62;43.38;95830.91;5005630;28;20252;-89
2023/05/30 08:47:52;;;;;;;5.82;3.78;;;;;;;22.99;40.26;95824.00;4929756;28;20220;-89
2023/05/30 08:51:02;;;;;;;6.95;3.80;;;;;;;22.94;40.33;95827.34;5004623;28;20751;-89
2023/05/30 08:54:03;;;;;;;;;;;;;;;;;;;;;
2023/05/30 09:00:17;;;;;;;6.50;3.88;;;;;;;22.98;41.49;95835.53;5006726;28;20238;-89
2023/05/30 09:09:07;;;;;;;4.40;3.35;;;;;;;23.23;39.91;95837.63;5010383;28;20225;-89
2023/05/30 09:11:43;;;;;;;6.88;3.95;;;;;;;23.32;40.77;95830.84;5009709;28;20206;-90
2023/05/30 09:14:47;;;;;;;6.32;3.53;;;;;;;23.60;40.26;95842.94;5011091;28;20230;-89
2023/05/30 09:17:16;;;;;;;4.32;3.50;;;;;;;23.87;39.93;95832.31;5008807;28;20377;-89
2023/05/30 09:33:17;;;;;;;7.00;3.40;;;;;;;24.37;39.33;95848.44;5007588;28;20207;-89
2023/05/30 09:42:56;;;;;;;;;;;;;;;;;;;;;
2023/05/30 09:49:43;;;;;;;4.07;3.35;;;;;;;24.90;36.52;95838.59;4870188;29;20268;-90
2023/05/30 09:52:11;;;;;;;6.68;3.58;;;;;;;24.93;36.62;95840.69;4926875;28;20207;-87
2023/05/30 09:54:54;;;;;;;5.25;3.40;;;;;;;24.97;36.03;95836.53;4990993;28;20202;-89
2023/05/30 09:57:47;;;;;;;4.05;3.13;;;;;;;24.86;36.33;95839.34;4990948;28;20607;-90
2023/05/30 10:00:31;;;;;;;6.05;3.40;;;;;;;25.13;37.70;95840.78;4991296;28;20235;-89
2023/05/30 10:03:06;;;;;;;4.45;3.72;;;;;;;25.30;37.63;95834.47;4990492;28;20234;-88
2023/05/30 10:06:04;;;;;;;8.52;3.60;;;;;;;25.54;36.54;95840.78;4990752;28;20676;-89
2023/05/30 10:12:45;;;;;;;4.30;3.30;;;;;;;25.25;35.38;95834.44;5008877;28;20233;-89
2023/05/30 10:18:31;;;;;;;5.20;3.30;;;;;;;25.15;35.71;95837.09;4948312;29;20221;-90
2023/05/30 10:21:00;;;;;;;4.75;3.45;;;;;;;25.15;35.27;95829.97;4948876;29;20279;-91
2023/05/30 10:23:35;;;;;;;3.72;3.35;;;;;;;25.27;35.84;95827.84;4981056;28;20579;-89
2023/05/30 10:26:16;;;;;;;5.78;3.60;;;;;;;25.40;36.96;95816.78;5009337;28;20424;-89
2023/05/30 10:28:48;;;;;;;5.18;3.50;;;;;;;25.63;34.08;95817.31;5010183;28;20218;-89
2023/05/30 10:31:17;;;;;;;5.68;3.53;;;;;;;25.44;33.89;95814.41;5009705;28;20195;-89
2023/05/30 10:33:47;;;;;;;4.10;3.22;;;;;;;25.29;34.83;95809.94;5010132;28;20242;-89
2023/05/30 10:36:14;;;;;;;6.80;3.35;;;;;;;25.64;35.02;95814.44;5006627;28;20203;-90
2023/05/30 10:38:47;;;;;;;3.72;3.30;;;;;;;25.93;34.97;95811.22;5005617;28;20226;-89
2023/05/30 10:41:24;;;;;;;5.18;3.20;;;;;;;26.16;33.63;95802.72;5008739;28;20209;-89
2023/05/30 10:44:04;;;;;;;6.45;3.13;;;;;;;26.17;33.48;95815.63;5009965;28;20198;-90
2023/05/30 10:46:44;;;;;;;4.32;3.00;;;;;;;26.34;32.75;95804.00;5008969;28;20679;-89
2023/05/30 10:49:21;;;;;;;4.65;2.90;;;;;;;26.32;32.83;95803.47;5009454;28;20687;-89
2023/05/30 10:52:02;;;;;;;5.25;3.15;;;;;;;26.28;32.65;95800.56;5008488;28;20198;-90
2023/05/30 10:54:34;;;;;;;6.80;6.10;;;;;;;26.22;33.27;95795.56;5008961;28;20195;-90
2023/05/30 10:57:01;;;;;;;4.90;4.10;;;;;;;26.30;31.92;95800.31;5009520;28;20199;-90
2023/05/30 10:59:32;;;;;;;5.60;3.53;;;;;;;26.47;30.76;95803.41;5008922;28;20253;-89
2023/05/30 11:02:02;;;;;;;4.40;3.33;;;;;;;26.76;31.65;95804.31;5006505;28;20259;-89
2023/05/30 11:04:32;;;;;;;6.35;4.53;;;;;;;26.98;31.88;95801.28;5009788;28;20575;-89
2023/05/30 11:06:59;;;;;;;4.10;2.67;;;;;;;26.95;30.16;95793.91;5009079;28;20191;-89
2023/05/30 11:09:28;;;;;;;6.10;3.17;;;;;;;26.91;30.74;95792.09;5010443;28;20226;-90
2023/05/30 11:11:57;;;;;;;5.80;3.05;;;;;;;26.76;31.10;95799.03;5009693;28;20253;-89
2023/05/30 11:14:30;;;;;;;4.22;3.15;;;;;;;26.51;32.71;95790.47;5009267;28;20202;-89
2023/05/30 11:17:05;;;;;;;3.78;3.17;;;;;;;26.74;31.69;95784.53;5008829;28;20676;-90
2023/05/30 11:19:37;;;;;;;5.50;3.10;;;;;;;26.53;32.83;95789.13;5014383;28;20213;-89
2023/05/30 11:22:15;;;;;;;4.72;2.95;;;;;;;26.07;34.04;95789.28;5017761;28;20238;-90
2023/05/30 11:24:43;;;;;;;4.47;3.20;;;;;;;25.73;33.42;95789.09;5008307;28;20189;-89
2023/05/30 11:27:12;;;;;;;3.97;3.33;;;;;;;25.43;34.18;95786.47;5009220;28;20253;-89
2023/05/30 11:29:48;;;;;;;4.57;3.20;;;;;;;25.42;34.26;95783.03;5009514;28;20219;-89
2023/05/30 11:32:23;;;;;;;4.70;3.00;;;;;;;25.33;33.67;95781.22;5009289;28;20599;-88
2023/05/30 11:34:57;;;;;;;3.70;3.20;;;;;;;25.26;32.41;95780.69;5009698;28;20594;-89
2023/05/30 11:37:25;;;;;;;4.60;3.33;;;;;;;25.32;33.88;95779.63;4999893;28;20218;-89
2023/05/30 11:39:55;;;;;;;3.50;3.20;;;;;;;25.03;33.80;95782.78;4988664;28;20215;-89
2023/05/30 11:55:04;;;;;;;3.33;3.03;;;;;;;26.17;33.20;95782.41;4988383;28;20269;-90
2023/05/30 11:57:31;;;;;;;5.78;3.42;;;;;;;26.04;34.17;95781.91;5002147;28;20246;-90
2023/05/30 11:59:58;;;;;;;10.20;9.10;;;;;;;25.92;34.67;95778.78;5007144;28;20242;-90
2023/05/30 12:02:29;;;;;;;5.90;4.70;;;;;;;26.13;34.24;95779.50;4987353;28;20238;-90
2023/05/30 12:05:01;;;;;;;4.28;3.88;;;;;;;26.38;31.58;95768.06;4989083;28;20209;-90
2023/05/30 12:07:27;;;;;;;3.42;3.13;;;;;;;26.62;33.04;95758.41;4992668;28;20711;-89
2023/05/30 12:09:54;;;;;;;5.20;3.20;;;;;;;26.85;32.15;95759.59;4988035;28;20460;-89
2023/05/30 12:12:22;;;;;;;6.55;3.25;;;;;;;27.11;31.52;95760.25;4996104;28;20210;-90
2023/05/30 12:15:02;;;;;;;6.97;3.42;;;;;;;26.67;33.04;95762.91;4989198;28;20202;-89
2023/05/30 12:17:29;;;;;;;4.55;3.08;;;;;;;26.61;32.87;95762.13;4998690;28;20206;-89
2023/05/30 12:19:57;;;;;;;4.13;3.17;;;;;;;26.73;31.41;95762.59;5007446;28;20315;-89
2023/05/30 12:22:24;;;;;;;3.65;3.00;;;;;;;26.95;32.07;95764.84;5007139;28;20309;-89
2023/05/30 12:24:54;;;;;;;4.90;3.45;;;;;;;26.51;32.46;95759.56;4997028;28;20203;-89
2023/05/30 12:27:28;;;;;;;5.80;3.30;;;;;;;26.10;33.02;95766.84;4991231;28;20198;-90
2023/05/30 12:29:54;;;;;;;4.85;3.47;;;;;;;25.71;33.63;95764.84;4994730;28;20602;-89
2023/05/30 12:32:28;;;;;;;7.68;3.50;;;;;;;25.59;34.11;95764.31;4994888;28;20556;-90
2023/05/30 12:34:58;;;;;;;4.50;3.95;;;;;;;25.34;34.60;95766.97;4988814;28;20203;-90
2023/05/30 12:37:25;;;;;;;7.78;3.35;;;;;;;25.08;34.54;95768.81;5001761;28;20198;-89
2023/05/30 12:39:52;;;;;;;3.53;3.22;;;;;;;24.92;34.92;95780.38;5011129;28;20202;-90
2023/05/30 13:29:26;;;;;;;5.35;3.90;;;;;;;26.17;33.70;95764.69;4997243;28;20282;-89
2023/05/30 13:31:56;;;;;;;7.68;3.80;;;;;;;26.21;33.40;95757.00;4993240;28;20310;-87
2023/05/30 13:34:25;;;;;;;4.85;3.78;;;;;;;26.04;31.76;95757.34;4997686;28;20624;-88
2023/05/30 13:36:52;;;;;;;4.38;3.58;;;;;;;26.08;32.43;95748.63;5000307;28;20221;-88
2023/05/30 13:39:19;;;;;;;5.45;3.60;;;;;;;26.24;31.87;95745.91;4994445;28;20206;-88
2023/05/30 13:41:46;;;;;;;3.88;3.47;;;;;;;26.40;31.65;95756.16;5000425;28;20238;-89
2023/05/30 13:44:12;;;;;;;5.97;3.75;;;;;;;26.42;31.51;95753.25;4991089;28;20219;-90
2023/05/30 13:46:40;;;;;;;4.47;3.60;;;;;;;26.36;32.49;95755.13;5002394;28;20199;-89
2023/05/30 13:49:07;;;;;;;5.65;3.30;;;;;;;25.53;32.53;95751.41;5001216;28;20288;-88
2023/05/30 13:51:34;;;;;;;5.45;2.90;;;;;;;25.49;32.62;95751.13;4996151;28;20222;-89
2023/05/30 14:20:54;;;;;;;3.45;3.15;;;;;;;25.48;32.89;95746.91;4959418;28;20591;-88
2023/05/30 14:29:19;;;;;;;5.60;3.30;;;;;;;25.31;31.62;95756.97;4984663;28;20268;-89
2023/05/30 14:31:45;;;;;;;4.13;3.33;;;;;;;25.27;32.38;95753.25;5008102;28;20207;-88
2023/05/30 14:34:13;;;;;;;4.63;2.90;;;;;;;25.43;32.73;95754.81;5008885;28;20253;-87
2023/05/30 14:40:36;;;;;;;3.78;3.22;;;;;;;25.67;32.00;95749.81;5004562;28;20238;-87
2023/05/30 15:26:47;;;;;;;6.28;3.35;;;;;;;25.08;34.01;95740.63;4978362;28;20207;-85
2023/05/30 15:29:14;;;;;;;3.63;2.78;;;;;;;24.98;34.68;95742.47;4978538;28;20196;-85
2023/05/30 15:31:40;;;;;;;4.32;3.40;;;;;;;24.73;35.12;95745.84;4984795;28;20225;-85
2023/05/30 15:34:07;;;;;;;5.63;3.17;;;;;;;24.39;35.26;95758.66;4988470;28;20207;-86
2023/05/30 15:36:33;;;;;;;7.65;3.88;;;;;;;24.22;35.97;95755.44;4982347;28;20299;-89
2023/05/30 15:39:06;;;;;;;17.40;15.32;;;;;;;24.05;36.30;95753.75;5027103;23;20238;-89
2023/05/30 15:41:35;;;;;;;8.90;4.90;;;;;;;23.96;36.36;95750.06;5008014;28;20635;-89
2023/05/30 15:44:06;;;;;;;5.78;3.35;;;;;;;24.06;36.15;95760.63;5008122;28;20297;-88
2023/05/30 15:46:58;;;;;;;7.93;3.80;;;;;;;24.25;35.72;95750.44;5007908;28;20230;-88
2023/05/30 15:49:26;;;;;;;5.82;3.45;;;;;;;24.42;35.78;95751.06;4988412;28;20935;-88
2023/05/30 15:51:52;;;;;;;3.97;3.47;;;;;;;24.56;35.96;95756.59;4988690;28;20198;-88
2023/05/30 15:54:33;;;;;;;7.00;3.28;;;;;;;24.33;35.78;95742.06;4988345;28;20224;-88
2023/05/30 15:57:01;;;;;;;3.85;3.28;;;;;;;24.35;36.38;95753.13;4987265;28;20223;-89
2023/05/30 15:59:29;;;;;;;9.10;3.50;;;;;;;24.40;36.62;95745.25;4987508;28;20318;-88
2023/05/30 16:01:55;;;;;;;5.97;3.65;;;;;;;24.34;36.33;95751.56;4988243;28;20819;-88
2023/05/30 16:04:22;;;;;;;5.38;4.07;;;;;;;24.20;36.67;95753.06;4988321;28;20227;-88
2023/05/30 16:06:49;;;;;;;8.10;3.67;;;;;;;24.30;37.03;95747.84;4988303;28;20623;-88
2023/05/30 16:09:15;;;;;;;4.40;3.15;;;;;;;24.38;36.42;95744.72;4987326;28;20207;-88
2023/05/30 16:11:42;;;;;;;6.25;3.80;;;;;;;24.39;36.94;95742.88;4982733;28;20195;-88
2023/05/30 16:14:08;;;;;;;11.07;4.10;;;;;;;24.38;37.14;95742.09;4987790;28;20195;-88
2023/05/30 16:16:39;;;;;;;6.32;3.60;;;;;;;24.14;37.11;95746.19;4988218;28;20851;-88
2023/05/30 16:19:05;;;;;;;3.53;3.20;;;;;;;23.98;37.25;95749.81;4983287;28;20206;-88
2023/05/30 16:21:33;;;;;;;8.20;3.75;;;;;;;24.00;37.86;95752.97;4987090;28;20211;-90
2023/05/30 16:27:21;;;;;;;8.38;3.90;;;;;;;24.17;37.33;95750.94;4975288;28;20229;-86
2023/05/30 16:52:40;;;;;;;4.45;3.05;;;;;;;23.64;37.84;95744.13;4965913;28;20199;-90
2023/05/30 16:55:08;;;;;;;4.90;3.67;;;;;;;23.43;37.76;95746.59;4981468;28;20436;-89
2023/05/30 16:57:36;;;;;;;4.18;3.70;;;;;;;23.47;38.31;95749.50;4968745;28;20284;-89
2023/05/30 17:00:02;;;;;;;4.82;3.05;;;;;;;23.53;37.77;95751.13;4970108;28;20265;-89
2023/05/30 17:02:32;;;;;;;5.95;3.70;;;;;;;23.44;38.13;95755.28;4987376;28;20282;-89
2023/05/30 17:04:59;;;;;;;6.38;3.35;;;;;;;23.16;37.98;95758.19;4987642;28;20210;-89
2023/05/30 17:07:26;;;;;;;6.22;3.53;;;;;;;23.01;38.20;95745.75;4988114;28;20203;-89